Time;durP1;ratioP1;P1;durP2;ratioP2;P2;SDS_P1;SDS_P2;PMS_P1;PMS_P2;Temp;Humidity;BMP_temperature;BMP_pressure;BME280_temperature;BME280_humidity;BME280_pressure;Samples;Min_cycle;Max_cycle;Signal;HPM_P1;HPM_P2
2024/01/15 00:01:17;;;;;;;26.70;17.37;;;3.00;51.30;;;;;;5092407;28;20207;-85
2024/01/15 00:03:43;;;;;;;30.90;17.60;;;3.10;53.60;;;;;;5093497;28;20247;-86
2024/01/15 00:06:09;;;;;;;29.07;18.00;;;3.20;53.90;;;;;;5095086;28;20174;-83
2024/01/15 00:08:34;;;;;;;27.77;16.97;;;3.10;52.50;;;;;;5093677;28;20175;-87
2024/01/15 00:11:00;;;;;;;26.00;16.47;;;3.20;53.40;;;;;;5093340;28;20172;-87
2024/01/15 00:13:25;;;;;;;27.33;16.33;;;3.40;50.90;;;;;;5093174;28;20723;-87
2024/01/15 00:15:51;;;;;;;27.73;15.43;;;3.40;51.30;;;;;;5093470;28;20282;-86
2024/01/15 00:18:17;;;;;;;25.20;16.17;;;3.30;49.10;;;;;;5093465;28;20198;-85
2024/01/15 00:20:42;;;;;;;24.17;14.87;;;3.30;47.10;;;;;;5093238;28;20211;-86
2024/01/15 00:23:08;;;;;;;22.83;14.70;;;3.20;46.60;;;;;;5093602;28;20214;-85
2024/01/15 00:25:34;;;;;;;25.80;15.07;;;3.10;49.70;;;;;;5093064;28;20186;-85
2024/01/15 00:27:59;;;;;;;24.90;13.70;;;3.30;49.80;;;;;;5093487;28;20168;-85
2024/01/15 00:30:25;;;;;;;23.47;14.53;;;3.20;48.30;;;;;;5093712;28;20179;-87
2024/01/15 00:32:51;;;;;;;19.57;12.17;;;3.20;50.10;;;;;;5094238;28;20199;-86
2024/01/15 00:35:16;;;;;;;25.87;14.30;;;3.10;53.30;;;;;;5094453;28;20252;-82
2024/01/15 00:37:42;;;;;;;21.17;13.17;;;3.10;55.00;;;;;;5097913;28;20182;-83
2024/01/15 00:40:08;;;;;;;20.67;12.87;;;3.10;59.40;;;;;;5104417;28;20548;-83
2024/01/15 00:42:34;;;;;;;21.20;13.10;;;3.20;60.60;;;;;;5104319;28;20180;-86
2024/01/15 00:44:59;;;;;;;22.67;13.27;;;3.10;61.30;;;;;;5104584;28;20189;-82
2024/01/15 00:47:25;;;;;;;18.77;12.03;;;3.20;61.20;;;;;;5095628;28;20183;-85
2024/01/15 00:49:51;;;;;;;19.00;12.47;;;3.20;60.10;;;;;;5092623;28;20174;-81
2024/01/15 00:52:17;;;;;;;16.97;11.97;;;3.30;61.10;;;;;;5093021;28;20186;-84
2024/01/15 00:54:42;;;;;;;17.50;11.00;;;3.20;60.10;;;;;;5093229;28;20180;-84
2024/01/15 00:57:08;;;;;;;18.70;11.50;;;3.30;64.50;;;;;;5093547;28;20198;-86
2024/01/15 00:59:34;;;;;;;18.73;10.97;;;3.20;67.20;;;;;;5092985;28;20201;-86
2024/01/15 01:01:59;;;;;;;15.47;10.90;;;3.20;68.70;;;;;;5093133;28;20242;-87
2024/01/15 01:04:25;;;;;;;15.33;10.23;;;3.20;71.10;;;;;;5092664;28;20191;-84
2024/01/15 01:06:50;;;;;;;14.90;9.53;;;3.30;71.90;;;;;;5093872;28;20180;-85
2024/01/15 01:09:16;;;;;;;14.47;9.60;;;3.40;70.80;;;;;;5092703;28;20180;-87
2024/01/15 01:11:42;;;;;;;13.47;8.73;;;3.40;71.40;;;;;;5092738;28;20172;-83
2024/01/15 01:14:07;;;;;;;13.73;8.33;;;3.50;72.50;;;;;;5091728;28;20222;-83
2024/01/15 01:16:38;;;;;;;12.77;8.50;;;3.40;72.30;;;;;;5091458;28;20254;-87
2024/01/15 01:19:06;;;;;;;12.77;8.43;;;3.40;73.50;;;;;;5092262;28;20226;-86
2024/01/15 01:21:32;;;;;;;14.03;8.13;;;3.60;73.40;;;;;;5091659;28;20252;-85
2024/01/15 01:23:57;;;;;;;10.73;6.67;;;3.60;71.30;;;;;;5092044;28;20590;-86
2024/01/15 01:26:23;;;;;;;11.23;7.07;;;3.60;67.80;;;;;;5092895;28;20170;-85
2024/01/15 01:28:50;;;;;;;10.10;6.93;;;3.80;64.60;;;;;;5092113;28;20167;-86
2024/01/15 01:31:16;;;;;;;8.67;6.10;;;3.70;60.70;;;;;;5093679;28;20225;-82
2024/01/15 01:33:42;;;;;;;8.57;5.93;;;3.60;60.20;;;;;;5094712;28;20320;-83
2024/01/15 01:36:10;;;;;;;10.50;6.80;;;3.80;62.50;;;;;;5092281;28;20591;-87
2024/01/15 01:38:37;;;;;;;8.30;5.70;;;3.70;59.80;;;;;;5092431;28;20179;-86
2024/01/15 01:41:03;;;;;;;9.20;5.60;;;3.80;58.40;;;;;;5091843;28;20207;-84
2024/01/15 01:43:29;;;;;;;11.77;6.00;;;3.60;60.20;;;;;;5091860;28;20539;-86
2024/01/15 01:45:57;;;;;;;7.47;5.27;;;3.60;62.70;;;;;;5091549;28;20669;-84
2024/01/15 01:48:25;;;;;;;8.33;5.07;;;3.70;64.20;;;;;;5091830;28;20171;-85
2024/01/15 01:50:50;;;;;;;7.30;5.23;;;3.60;62.10;;;;;;5091743;28;20174;-85
2024/01/15 01:53:16;;;;;;;7.17;4.80;;;3.70;69.70;;;;;;5092083;28;20171;-84
2024/01/15 01:55:42;;;;;;;7.47;5.17;;;3.70;68.80;;;;;;5091819;28;20175;-86
2024/01/15 01:58:08;;;;;;;6.80;4.80;;;3.60;70.70;;;;;;5091428;28;20750;-85
2024/01/15 02:00:34;;;;;;;6.43;4.80;;;3.50;71.50;;;;;;5092059;28;20211;-85
2024/01/15 02:03:00;;;;;;;7.53;4.80;;;3.50;74.70;;;;;;5093300;28;20639;-84
2024/01/15 02:05:27;;;;;;;7.17;4.67;;;3.70;78.20;;;;;;5091479;28;20183;-83
2024/01/15 02:07:53;;;;;;;6.57;4.30;;;3.60;82.90;;;;;;5091447;28;20550;-86
2024/01/15 02:10:18;;;;;;;7.83;3.73;;;3.60;87.10;;;;;;5091424;28;20179;-86
2024/01/15 02:12:45;;;;;;;4.47;4.00;;;3.60;83.40;;;;;;5092248;28;20175;-87
2024/01/15 02:15:11;;;;;;;6.43;4.20;;;3.60;82.30;;;;;;5090854;28;20179;-85
2024/01/15 02:17:57;;;;;;;9.97;4.40;;;3.60;79.70;;;;;;5091531;28;20187;-85
2024/01/15 02:20:23;;;;;;;6.17;3.80;;;3.50;81.50;;;;;;5093322;28;20558;-82
2024/01/15 02:22:49;;;;;;;6.73;3.97;;;3.50;88.20;;;;;;5091938;28;20176;-86
2024/01/15 02:25:14;;;;;;;5.70;3.97;;;3.50;91.10;;;;;;5096542;28;20167;-82
2024/01/15 02:27:41;;;;;;;5.00;3.30;;;3.50;91.00;;;;;;5094582;28;20179;-86
2024/01/15 02:30:08;;;;;;;8.60;3.23;;;3.50;94.00;;;;;;5095503;28;20175;-85
2024/01/15 02:32:33;;;;;;;7.00;3.90;;;3.50;96.00;;;;;;5095641;28;20194;-81
2024/01/15 02:34:59;;;;;;;5.67;3.57;;;3.60;95.90;;;;;;5094722;28;20532;-82
2024/01/15 02:37:25;;;;;;;5.17;3.30;;;3.50;94.70;;;;;;5094974;28;20171;-86
2024/01/15 02:39:50;;;;;;;5.80;3.40;;;3.50;97.70;;;;;;5095474;28;20207;-83
2024/01/15 02:42:17;;;;;;;5.60;4.43;;;3.60;99.90;;;;;;5094758;28;20180;-86
2024/01/15 02:44:42;;;;;;;7.67;5.20;;;3.50;98.60;;;;;;5094619;28;20160;-86
2024/01/15 02:47:08;;;;;;;7.70;5.57;;;3.40;98.30;;;;;;5093701;28;20229;-86
2024/01/15 02:49:34;;;;;;;10.60;6.03;;;3.50;99.50;;;;;;5095151;28;20291;-85
2024/01/15 02:51:59;;;;;;;8.20;6.13;;;3.60;97.20;;;;;;5094819;28;20194;-82
2024/01/15 02:54:25;;;;;;;11.03;7.07;;;3.60;95.50;;;;;;5094829;28;20183;-85
2024/01/15 02:56:50;;;;;;;11.03;7.30;;;3.40;93.70;;;;;;5095207;28;20616;-85
2024/01/15 02:59:16;;;;;;;10.30;7.53;;;3.50;93.80;;;;;;5094088;28;20179;-82
2024/01/15 03:01:42;;;;;;;13.13;8.60;;;3.30;93.00;;;;;;5094689;28;20735;-84
2024/01/15 03:04:07;;;;;;;12.87;8.63;;;3.30;94.10;;;;;;5094538;28;20175;-85
2024/01/15 03:06:33;;;;;;;11.77;8.80;;;3.30;95.90;;;;;;5094402;28;20623;-85
2024/01/15 03:08:59;;;;;;;14.33;9.13;;;3.20;97.00;;;;;;5093397;28;20179;-87
2024/01/15 03:11:26;;;;;;;12.07;8.13;;;3.20;96.80;;;;;;5095476;28;20278;-86
2024/01/15 03:13:51;;;;;;;12.23;9.20;;;3.10;97.30;;;;;;5094546;28;20172;-85
2024/01/15 03:16:19;;;;;;;13.87;8.67;;;3.20;99.10;;;;;;5096871;28;20186;-82
2024/01/15 03:18:45;;;;;;;13.10;9.37;;;3.30;99.80;;;;;;5097508;28;20294;-83
2024/01/15 03:21:11;;;;;;;15.80;10.13;;;3.20;98.90;;;;;;5094031;28;20290;-86
2024/01/15 03:23:37;;;;;;;14.13;9.60;;;3.30;99.90;;;;;;5094093;28;20265;-86
2024/01/15 03:26:02;;;;;;;14.90;10.87;;;3.30;99.60;;;;;;5093874;28;20672;-83
2024/01/15 03:28:30;;;;;;;14.77;10.40;;;3.20;98.60;;;;;;5093291;28;20171;-84
2024/01/15 03:30:55;;;;;;;15.33;9.50;;;3.20;99.20;;;;;;5094823;28;20537;-83
2024/01/15 03:33:21;;;;;;;16.67;10.00;;;3.20;99.80;;;;;;5095121;28;20239;-85
2024/01/15 03:35:47;;;;;;;16.60;11.13;;;3.10;99.90;;;;;;5092541;28;20758;-83
2024/01/15 03:38:12;;;;;;;15.93;10.93;;;3.00;99.90;;;;;;5094636;28;20190;-83
2024/01/15 03:40:38;;;;;;;15.23;10.13;;;3.10;99.90;;;;;;5094187;28;20264;-87
2024/01/15 03:43:04;;;;;;;16.83;11.47;;;3.00;99.90;;;;;;5094328;28;20632;-84
2024/01/15 03:45:29;;;;;;;16.47;11.13;;;2.90;99.90;;;;;;5093375;28;20485;-86
2024/01/15 03:47:55;;;;;;;17.37;11.63;;;2.90;99.90;;;;;;5093765;28;20220;-86
2024/01/15 03:50:20;;;;;;;22.30;12.20;;;3.00;99.90;;;;;;5095644;28;20168;-82
2024/01/15 03:52:46;;;;;;;18.53;12.03;;;3.00;99.90;;;;;;5095298;28;20169;-82
2024/01/15 03:55:12;;;;;;;19.40;12.37;;;2.90;99.90;;;;;;5093644;28;20183;-85
2024/01/15 03:57:37;;;;;;;18.67;13.07;;;3.00;99.90;;;;;;5093923;28;20191;-85
2024/01/15 04:00:03;;;;;;;20.57;13.43;;;3.00;99.90;;;;;;5092650;28;20641;-83
2024/01/15 04:02:29;;;;;;;21.13;13.73;;;3.00;99.90;;;;;;5093771;28;20540;-87
2024/01/15 04:04:55;;;;;;;22.93;14.03;;;3.00;99.90;;;;;;5093045;28;20172;-86
2024/01/15 04:07:20;;;;;;;19.23;13.93;;;3.10;99.90;;;;;;5092455;28;20601;-87
2024/01/15 04:09:46;;;;;;;21.10;13.57;;;3.20;99.90;;;;;;5092671;28;20172;-86
2024/01/15 04:12:11;;;;;;;22.27;14.33;;;3.00;99.90;;;;;;5093995;28;20176;-86
2024/01/15 04:14:37;;;;;;;22.47;14.90;;;3.20;99.90;;;;;;5092948;28;20689;-83
2024/01/15 04:17:03;;;;;;;23.13;15.00;;;3.20;99.90;;;;;;5093601;28;20217;-84
2024/01/15 04:19:28;;;;;;;19.47;14.17;;;3.20;99.10;;;;;;5093662;28;20221;-86
2024/01/15 04:21:54;;;;;;;21.43;14.43;;;3.20;98.80;;;;;;5093319;28;20207;-86
2024/01/15 04:24:20;;;;;;;20.73;14.10;;;3.30;98.10;;;;;;5092677;28;20179;-86
2024/01/15 04:26:46;;;;;;;20.30;14.23;;;3.40;96.60;;;;;;5094044;28;20202;-86
2024/01/15 04:29:11;;;;;;;20.27;14.33;;;3.40;93.90;;;;;;5092504;28;20172;-85
2024/01/15 04:31:37;;;;;;;21.17;13.23;;;3.40;90.40;;;;;;5093055;28;20167;-82
2024/01/15 04:34:03;;;;;;;19.13;13.73;;;3.50;85.50;;;;;;5093600;28;20589;-83
2024/01/15 04:36:28;;;;;;;21.20;13.70;;;3.40;80.60;;;;;;5093075;28;20172;-84
2024/01/15 04:38:54;;;;;;;18.53;12.23;;;3.40;78.20;;;;;;5092000;28;20184;-86
2024/01/15 04:41:20;;;;;;;19.53;12.90;;;3.40;76.60;;;;;;5092669;28;20215;-84
2024/01/15 04:43:46;;;;;;;21.67;13.00;;;3.30;76.90;;;;;;5092485;28;20170;-86
2024/01/15 04:46:12;;;;;;;16.27;11.73;;;3.40;80.70;;;;;;5092347;28;20219;-84
2024/01/15 04:48:37;;;;;;;16.13;11.40;;;3.40;78.30;;;;;;5092184;28;20772;-84
2024/01/15 04:51:09;;;;;;;18.97;11.73;;;3.50;76.60;;;;;;5092713;28;20180;-84
2024/01/15 04:53:35;;;;;;;16.33;11.47;;;3.40;77.30;;;;;;5091904;28;20178;-82
2024/01/15 04:56:01;;;;;;;14.70;10.40;;;3.40;77.00;;;;;;5092196;28;20176;-87
2024/01/15 04:58:27;;;;;;;15.73;9.30;;;3.40;73.30;;;;;;5092867;28;20179;-85
2024/01/15 05:00:54;;;;;;;12.23;8.27;;;3.40;74.00;;;;;;5098559;28;20207;-83
2024/01/15 05:03:20;;;;;;;9.70;6.13;;;3.40;74.30;;;;;;5094397;28;20710;-82
2024/01/15 05:05:45;;;;;;;7.73;5.47;;;3.30;67.80;;;;;;5092683;28;20258;-84
2024/01/15 05:08:11;;;;;;;10.20;5.10;;;3.20;69.80;;;;;;5091679;28;20199;-84
2024/01/15 05:10:37;;;;;;;6.83;4.37;;;3.10;74.60;;;;;;5092371;28;20180;-82
2024/01/15 05:13:03;;;;;;;8.00;4.47;;;3.20;78.40;;;;;;5092257;28;20168;-85
2024/01/15 05:15:28;;;;;;;5.93;3.77;;;3.20;82.20;;;;;;5092180;28;20164;-86
2024/01/15 05:17:54;;;;;;;6.77;3.63;;;3.10;83.60;;;;;;5092129;28;20671;-85
2024/01/15 05:20:20;;;;;;;8.13;4.20;;;3.10;88.30;;;;;;5092308;28;20664;-86
2024/01/15 05:22:45;;;;;;;4.87;3.20;;;3.10;91.20;;;;;;5092151;28;20167;-85
2024/01/15 05:25:11;;;;;;;7.03;3.20;;;3.20;92.00;;;;;;5092319;28;20174;-84
2024/01/15 05:27:37;;;;;;;5.03;2.80;;;3.20;93.60;;;;;;5092329;28;20220;-83
2024/01/15 05:30:03;;;;;;;5.93;2.67;;;3.10;94.20;;;;;;5093418;28;20183;-86
2024/01/15 05:32:29;;;;;;;5.43;3.20;;;3.10;95.10;;;;;;5091134;28;20168;-85
2024/01/15 05:34:55;;;;;;;8.03;3.90;;;3.00;98.20;;;;;;5092434;28;20655;-85
2024/01/15 05:37:20;;;;;;;4.77;3.33;;;3.00;99.70;;;;;;5092305;28;20246;-82
2024/01/15 05:39:46;;;;;;;8.10;3.47;;;3.10;99.90;;;;;;5092255;28;20266;-86
2024/01/15 05:42:12;;;;;;;6.33;3.40;;;3.00;99.90;;;;;;5092177;28;20179;-86
2024/01/15 05:44:37;;;;;;;8.07;3.40;;;3.10;99.90;;;;;;5090920;28;20692;-85
2024/01/15 05:47:04;;;;;;;4.30;3.00;;;3.00;99.90;;;;;;5091971;28;20175;-84
2024/01/15 05:49:29;;;;;;;4.53;2.00;;;2.90;99.90;;;;;;5092091;28;20175;-87
2024/01/15 05:51:55;;;;;;;10.33;4.10;;;2.90;99.90;;;;;;5090978;28;20526;-82
2024/01/15 05:54:21;;;;;;;10.03;2.93;;;2.90;99.90;;;;;;5091626;28;20168;-84
2024/01/15 05:56:46;;;;;;;7.43;2.30;;;2.90;99.90;;;;;;5091845;28;20191;-85
2024/01/15 05:59:12;;;;;;;5.13;2.00;;;2.90;97.70;;;;;;5093282;28;20179;-84
2024/01/15 06:01:38;;;;;;;4.43;1.60;;;2.90;93.20;;;;;;5095414;28;20328;-82
2024/01/15 06:04:03;;;;;;;3.67;1.60;;;3.00;83.60;;;;;;5096912;28;20232;-83
2024/01/15 06:06:29;;;;;;;7.67;1.60;;;3.00;78.40;;;;;;5094391;28;20178;-83
2024/01/15 06:08:55;;;;;;;3.27;1.90;;;3.10;72.40;;;;;;5094739;28;20784;-85
2024/01/15 06:11:20;;;;;;;3.93;1.27;;;3.30;64.10;;;;;;5095658;28;20186;-86
2024/01/15 06:13:46;;;;;;;4.60;1.47;;;3.10;51.60;;;;;;5095425;28;20172;-85
2024/01/15 06:16:14;;;;;;;10.83;2.07;;;3.10;47.50;;;;;;5095231;28;20324;-83
2024/01/15 06:18:40;;;;;;;5.17;1.80;;;3.10;44.60;;;;;;5095052;28;20203;-86
2024/01/15 06:21:06;;;;;;;5.97;1.53;;;3.10;48.40;;;;;;5095422;28;20215;-86
2024/01/15 06:23:31;;;;;;;4.57;1.70;;;3.10;50.20;;;;;;5094761;28;20225;-85
2024/01/15 06:25:57;;;;;;;3.87;2.30;;;3.10;52.80;;;;;;5095770;28;20175;-82
2024/01/15 06:28:23;;;;;;;7.63;2.03;;;3.00;59.30;;;;;;5096948;28;20164;-84
2024/01/15 06:30:48;;;;;;;7.50;2.47;;;3.00;65.30;;;;;;5095570;28;20187;-84
2024/01/15 06:33:14;;;;;;;3.70;1.90;;;3.00;72.50;;;;;;5095576;28;20207;-83
2024/01/15 06:35:41;;;;;;;3.47;2.07;;;3.10;75.60;;;;;;5095609;28;20172;-87
2024/01/15 06:38:06;;;;;;;7.03;2.37;;;2.90;76.00;;;;;;5094330;28;20172;-86
2024/01/15 06:40:32;;;;;;;4.37;2.37;;;3.00;86.40;;;;;;5104657;28;20230;-85
2024/01/15 06:42:58;;;;;;;5.37;2.43;;;3.00;90.40;;;;;;5109834;28;20310;-84
2024/01/15 06:45:24;;;;;;;4.70;2.43;;;2.90;87.60;;;;;;5099667;28;20257;-86
2024/01/15 06:47:50;;;;;;;7.70;2.60;;;2.90;91.60;;;;;;5095074;28;20365;-87
2024/01/15 06:50:16;;;;;;;4.57;2.30;;;3.00;92.10;;;;;;5094560;28;20206;-87
2024/01/15 06:52:41;;;;;;;5.03;3.03;;;3.00;90.00;;;;;;5093787;28;20174;-84
2024/01/15 06:55:08;;;;;;;7.17;2.87;;;3.00;89.60;;;;;;5094000;28;20171;-84
2024/01/15 06:57:33;;;;;;;7.23;2.90;;;3.00;90.40;;;;;;5092988;28;20213;-83
2024/01/15 06:59:59;;;;;;;5.60;2.53;;;3.00;90.50;;;;;;5094697;28;20171;-82
2024/01/15 07:02:26;;;;;;;5.67;2.60;;;3.10;85.80;;;;;;5093810;28;20171;-81
2024/01/15 07:04:52;;;;;;;7.17;3.23;;;3.00;82.90;;;;;;5093439;28;20607;-87
2024/01/15 07:07:17;;;;;;;6.50;3.80;;;2.90;84.50;;;;;;5092974;28;20275;-85
2024/01/15 07:09:43;;;;;;;7.13;3.30;;;2.80;85.90;;;;;;5093686;28;20182;-84
2024/01/15 07:12:08;;;;;;;7.00;2.87;;;2.90;85.00;;;;;;5082882;28;20587;-83
2024/01/15 07:14:35;;;;;;;4.50;3.60;;;2.80;85.50;;;;;;5074428;28;20176;-83
2024/01/15 07:17:01;;;;;;;5.20;3.27;;;2.80;87.70;;;;;;5072972;28;20169;-86
2024/01/15 07:19:26;;;;;;;6.57;3.20;;;2.80;88.20;;;;;;5072036;28;20176;-85
2024/01/15 07:21:52;;;;;;;7.30;2.90;;;2.70;85.50;;;;;;5071433;28;20260;-87
2024/01/15 07:24:18;;;;;;;5.67;2.80;;;2.50;86.50;;;;;;5073018;28;20183;-86
2024/01/15 07:26:44;;;;;;;4.37;2.53;;;2.50;90.60;;;;;;5073495;28;20590;-85
2024/01/15 07:29:10;;;;;;;6.10;3.07;;;2.50;93.60;;;;;;5073199;28;20180;-84
2024/01/15 07:31:35;;;;;;;4.87;3.30;;;2.60;93.20;;;;;;5073709;28;20287;-83
2024/01/15 07:34:01;;;;;;;5.80;3.10;;;2.80;90.50;;;;;;5072768;28;20176;-83
2024/01/15 07:36:27;;;;;;;7.47;3.63;;;2.60;85.10;;;;;;5073306;28;20259;-83
2024/01/15 07:38:52;;;;;;;8.97;3.80;;;2.60;85.00;;;;;;5073973;28;20231;-82
2024/01/15 07:41:18;;;;;;;8.43;3.67;;;2.70;90.20;;;;;;5073621;28;20594;-82
2024/01/15 07:43:43;;;;;;;7.83;3.90;;;2.70;89.10;;;;;;5072508;28;20610;-82
2024/01/15 07:46:09;;;;;;;7.47;4.07;;;2.70;87.10;;;;;;5072531;28;20176;-84
2024/01/15 07:48:34;;;;;;;8.10;4.40;;;2.70;84.70;;;;;;5083418;28;20180;-85
2024/01/15 07:51:00;;;;;;;12.87;5.03;;;2.70;83.70;;;;;;5094559;28;20241;-84
2024/01/15 07:53:26;;;;;;;11.80;5.07;;;2.70;84.60;;;;;;5096002;28;20259;-85
2024/01/15 07:55:51;;;;;;;9.10;5.13;;;2.70;84.90;;;;;;5097371;28;20213;-87
2024/01/15 07:58:17;;;;;;;8.23;4.73;;;2.60;86.50;;;;;;5096464;28;20678;-84
2024/01/15 08:00:43;;;;;;;7.50;5.13;;;2.60;90.30;;;;;;5093187;28;20211;-84
2024/01/15 08:03:08;;;;;;;10.20;5.50;;;2.70;89.70;;;;;;5092980;28;20650;-84
2024/01/15 08:05:34;;;;;;;7.50;5.50;;;2.70;88.80;;;;;;5092352;28;20262;-82
2024/01/15 08:08:00;;;;;;;8.40;5.40;;;2.70;86.90;;;;;;5088496;28;20171;-84
2024/01/15 08:10:26;;;;;;;7.43;5.13;;;2.70;86.00;;;;;;5079565;28;20540;-83
2024/01/15 08:12:51;;;;;;;7.63;5.40;;;2.60;85.00;;;;;;5072003;28;20176;-84
2024/01/15 08:15:17;;;;;;;9.83;5.80;;;2.60;87.50;;;;;;5073410;28;20176;-82
2024/01/15 08:17:43;;;;;;;11.70;6.37;;;2.70;87.40;;;;;;5072002;28;20200;-85
2024/01/15 08:20:10;;;;;;;7.13;4.57;;;2.70;82.10;;;;;;5092705;28;20183;-84
2024/01/15 08:22:35;;;;;;;8.30;4.97;;;2.80;78.40;;;;;;5095610;28;20628;-83
2024/01/15 08:25:02;;;;;;;11.30;5.70;;;2.80;71.60;;;;;;5105197;28;20168;-84
2024/01/15 08:27:29;;;;;;;9.97;4.83;;;2.80;63.50;;;;;;5105638;28;20171;-83
2024/01/15 08:29:54;;;;;;;8.23;4.83;;;2.90;56.30;;;;;;5100920;28;20172;-82
2024/01/15 08:32:20;;;;;;;22.47;11.03;;;2.90;52.10;;;;;;5092419;28;20228;-84
2024/01/15 08:34:48;;;;;;;68.70;28.50;;;3.00;39.90;;;;;;5092831;28;20171;-85
2024/01/15 08:37:14;;;;;;;14.17;7.03;;;2.90;34.50;;;;;;5092584;28;20176;-84
2024/01/15 08:39:40;;;;;;;6.40;2.83;;;3.00;26.60;;;;;;5092985;28;20221;-83
2024/01/15 08:42:06;;;;;;;8.43;3.27;;;3.10;21.30;;;;;;5092603;28;20746;-83
2024/01/15 08:44:31;;;;;;;7.20;2.47;;;3.10;13.80;;;;;;5092583;28;20167;-83
2024/01/15 08:46:57;;;;;;;7.30;2.57;;;3.00;8.90;;;;;;5091393;28;20480;-83
2024/01/15 08:49:23;;;;;;;10.50;3.33;;;3.00;10.60;;;;;;5092107;28;20179;-84
2024/01/15 08:51:49;;;;;;;12.03;4.47;;;3.00;6.30;;;;;;5091966;28;20693;-82
2024/01/15 08:54:14;;;;;;;8.73;4.33;;;3.10;2.30;;;;;;5092494;28;20710;-82
2024/01/15 08:56:40;;;;;;;6.20;4.40;;;3.00;1.00;;;;;;5091787;28;20190;-82
2024/01/15 08:59:06;;;;;;;15.50;5.67;;;3.00;1.00;;;;;;5092022;28;20164;-82
2024/01/15 09:01:32;;;;;;;37.30;20.20;;;3.00;1.00;;;;;;5091608;28;20309;-82
2024/01/15 09:03:58;;;;;;;6.80;2.97;;;3.00;1.00;;;;;;5092441;28;20334;-83
2024/01/15 09:06:24;;;;;;;5.27;1.93;;;3.00;1.00;;;;;;5091715;28;20212;-85
2024/01/15 09:08:49;;;;;;;6.83;2.47;;;2.90;1.00;;;;;;5091812;28;20174;-83
2024/01/15 09:11:15;;;;;;;7.43;3.40;;;3.00;1.00;;;;;;5092418;28;20171;-82
2024/01/15 09:13:41;;;;;;;8.40;2.83;;;3.10;1.00;;;;;;5091474;28;20296;-81
2024/01/15 09:16:07;;;;;;;11.90;4.57;;;3.20;1.00;;;;;;5091889;28;20175;-83
2024/01/15 09:18:33;;;;;;;7.53;2.70;;;3.30;1.00;;;;;;5091383;28;20199;-81
2024/01/15 09:20:59;;;;;;;12.27;4.43;;;3.30;1.00;;;;;;5092148;28;20187;-83
2024/01/15 09:23:25;;;;;;;12.47;5.60;;;3.30;1.00;;;;;;5091550;28;20210;-82
2024/01/15 09:25:52;;;;;;;6.70;3.50;;;3.40;1.00;;;;;;5092763;28;20164;-83
2024/01/15 09:28:18;;;;;;;5.60;3.53;;;3.30;1.00;;;;;;5091560;28;20179;-85
2024/01/15 09:30:45;;;;;;;7.10;2.27;;;3.40;1.00;;;;;;5091136;28;20590;-82
2024/01/15 09:33:10;;;;;;;4.87;1.93;;;3.40;1.00;;;;;;5091103;28;20648;-84
2024/01/15 09:35:36;;;;;;;6.50;2.60;;;3.50;1.00;;;;;;5092690;28;20258;-83
2024/01/15 09:38:03;;;;;;;6.40;2.10;;;3.40;1.00;;;;;;5091374;28;20251;-83
2024/01/15 09:40:33;;;;;;;7.97;3.53;;;3.50;1.00;;;;;;5091722;28;20207;-83
2024/01/15 09:42:59;;;;;;;10.03;3.90;;;3.60;1.00;;;;;;5092798;28;20160;-84
2024/01/15 09:45:25;;;;;;;8.13;2.43;;;3.60;1.00;;;;;;5091316;28;20646;-83
2024/01/15 09:47:51;;;;;;;6.87;4.17;;;3.70;1.00;;;;;;5091156;28;20179;-83
2024/01/15 09:50:17;;;;;;;19.67;8.07;;;3.70;1.00;;;;;;5091213;28;20168;-83
2024/01/15 09:52:45;;;;;;;10.67;6.23;;;3.60;1.00;;;;;;5092634;28;20176;-84
2024/01/15 09:55:12;;;;;;;7.53;2.30;;;3.50;1.00;;;;;;5092414;28;20175;-82
2024/01/15 09:57:39;;;;;;;3.70;1.70;;;3.60;1.00;;;;;;5091287;28;20206;-83
2024/01/15 10:00:07;;;;;;;7.17;2.70;;;3.60;1.00;;;;;;5091185;28;20171;-82
2024/01/15 10:02:33;;;;;;;6.33;2.13;;;3.70;1.00;;;;;;5091212;28;20190;-83
2024/01/15 10:04:59;;;;;;;6.10;2.20;;;3.80;1.00;;;;;;5093065;28;20163;-84
2024/01/15 10:07:25;;;;;;;9.50;2.20;;;3.80;1.00;;;;;;5092357;28;20184;-84
2024/01/15 10:09:51;;;;;;;9.33;3.30;;;3.90;1.00;;;;;;5096685;28;20179;-82
2024/01/15 10:12:17;;;;;;;7.97;3.63;;;3.90;1.00;;;;;;5100394;28;20227;-82
2024/01/15 10:14:43;;;;;;;8.67;3.40;;;3.90;1.00;;;;;;5095598;28;20176;-84
2024/01/15 10:17:15;;;;;;;20.50;9.37;;;3.90;1.00;;;;;;5090278;28;20291;-84
2024/01/15 10:19:41;;;;;;;16.97;7.27;;;3.90;1.00;;;;;;5090686;28;20210;-83
2024/01/15 10:22:09;;;;;;;26.53;16.07;;;3.90;1.00;;;;;;5091981;28;20206;-82
2024/01/15 10:24:40;;;;;;;6.27;1.70;;;4.00;1.00;;;;;;5090873;28;20716;-83
2024/01/15 10:27:10;;;;;;;5.03;1.90;;;3.90;1.00;;;;;;5090309;28;20179;-83
2024/01/15 10:29:36;;;;;;;4.73;1.73;;;3.90;1.00;;;;;;5091933;28;20164;-83
2024/01/15 10:32:03;;;;;;;5.93;2.53;;;3.90;1.00;;;;;;5091101;28;20175;-82
2024/01/15 10:34:30;;;;;;;5.53;2.77;;;3.90;1.00;;;;;;5090472;28;20175;-85
2024/01/15 10:36:56;;;;;;;7.30;2.97;;;4.00;1.00;;;;;;5090639;28;20180;-83
2024/01/15 10:39:23;;;;;;;6.13;2.70;;;4.10;1.00;;;;;;5090757;28;20190;-86
2024/01/15 10:41:50;;;;;;;10.57;4.67;;;4.20;1.00;;;;;;5090743;28;20290;-83
2024/01/15 10:44:19;;;;;;;6.17;3.10;;;4.20;1.00;;;;;;5089763;28;20282;-83
2024/01/15 10:46:45;;;;;;;19.47;11.47;;;4.10;1.00;;;;;;5094737;28;20190;-83
2024/01/15 10:49:11;;;;;;;18.60;10.70;;;4.10;1.00;;;;;;5094460;28;20167;-84
2024/01/15 10:51:38;;;;;;;6.57;2.23;;;4.20;1.00;;;;;;5096131;28;20217;-82
2024/01/15 10:54:05;;;;;;;5.97;2.00;;;4.10;1.00;;;;;;5094635;28;20541;-83
2024/01/15 10:56:33;;;;;;;7.20;2.07;;;4.20;1.00;;;;;;5093398;28;20655;-83
2024/01/15 10:58:59;;;;;;;4.33;1.80;;;4.30;1.00;;;;;;5093617;28;20213;-83
2024/01/15 11:01:25;;;;;;;9.93;4.03;;;4.30;1.00;;;;;;5093918;28;20203;-81
2024/01/15 11:03:51;;;;;;;11.57;4.03;;;4.40;1.00;;;;;;5094487;28;20179;-84
2024/01/15 11:06:22;;;;;;;34.77;15.17;;;4.60;1.00;;;;;;5094593;28;20195;-83
2024/01/15 11:08:51;;;;;;;4.50;2.50;;;4.70;1.00;;;;;;5094911;28;20180;-82
2024/01/15 11:11:18;;;;;;;5.97;2.30;;;4.70;1.00;;;;;;5099524;28;20197;-86
2024/01/15 11:13:46;;;;;;;4.83;2.17;;;4.60;1.00;;;;;;5097020;28;20254;-84
2024/01/15 11:16:14;;;;;;;7.23;2.30;;;4.50;1.00;;;;;;5095405;28;20172;-84
2024/01/15 11:18:41;;;;;;;6.03;1.87;;;4.50;1.00;;;;;;5096822;28;20195;-82
2024/01/15 11:21:16;;;;;;;4.77;2.07;;;4.50;1.00;;;;;;5094065;28;20315;-82
2024/01/15 11:23:46;;;;;;;6.10;1.63;;;4.40;1.00;;;;;;5094871;28;20246;-84
2024/01/15 11:26:31;;;;;;;6.07;2.30;;;4.50;1.00;;;;;;5093541;28;20171;-83
2024/01/15 11:28:59;;;;;;;6.50;1.87;;;4.50;1.00;;;;;;5094656;28;20178;-83
2024/01/15 11:31:45;;;;;;;6.43;1.70;;;4.50;1.00;;;;;;5093266;28;20206;-84
2024/01/15 11:34:12;;;;;;;7.30;2.97;;;4.50;1.00;;;;;;5079516;28;20184;-83
2024/01/15 11:36:49;;;;;;;4.53;1.83;;;4.60;1.00;;;;;;5093249;28;20171;-85
2024/01/15 11:39:46;;;;;;;7.53;1.70;;;4.50;1.00;;;;;;5092340;28;20222;-85
2024/01/15 11:42:13;;;;;;;4.53;1.53;;;4.60;1.00;;;;;;5076878;28;20233;-84
2024/01/15 11:44:39;;;;;;;3.30;1.40;;;4.50;1.00;;;;;;5094721;28;20217;-85
2024/01/15 11:47:13;;;;;;;6.43;1.80;;;4.60;1.00;;;;;;5093684;28;20172;-86
2024/01/15 11:50:00;;;;;;;7.87;1.90;;;4.50;1.00;;;;;;5094779;28;20251;-84
2024/01/15 11:52:26;;;;;;;5.30;1.90;;;4.70;1.00;;;;;;5092669;28;20164;-83
2024/01/15 11:54:58;;;;;;;6.77;1.93;;;4.70;1.00;;;;;;5101585;28;20172;-83
2024/01/15 11:57:37;;;;;;;3.80;1.50;;;4.80;1.00;;;;;;5096538;28;20183;-84
2024/01/15 12:00:05;;;;;;;7.83;1.70;;;4.90;1.00;;;;;;5093578;28;20638;-85
2024/01/15 12:02:31;;;;;;;6.17;1.77;;;4.70;1.00;;;;;;5092497;28;20646;-84
2024/01/15 12:04:56;;;;;;;4.23;1.90;;;4.80;1.00;;;;;;5093082;28;20171;-84
2024/01/15 12:07:22;;;;;;;7.90;1.80;;;4.90;1.00;;;;;;5092633;28;20754;-82
2024/01/15 12:09:47;;;;;;;7.67;2.97;;;5.00;1.00;;;;;;5092555;28;20266;-83
2024/01/15 12:12:24;;;;;;;8.07;1.87;;;5.10;1.00;;;;;;5092960;28;20182;-85
2024/01/15 12:14:50;;;;;;;4.80;1.63;;;5.20;1.00;;;;;;5092583;28;20175;-85
2024/01/15 12:17:16;;;;;;;5.90;2.17;;;5.30;1.00;;;;;;5093198;28;20210;-81
2024/01/15 12:19:43;;;;;;;3.67;1.40;;;5.20;1.00;;;;;;5092958;28;20182;-86
2024/01/15 12:22:09;;;;;;;6.80;1.87;;;5.30;1.00;;;;;;5092881;28;20219;-86
2024/01/15 12:24:35;;;;;;;6.17;1.87;;;5.20;1.00;;;;;;5092923;28;20186;-84
2024/01/15 12:27:01;;;;;;;5.50;1.73;;;5.20;1.00;;;;;;5093658;28;20199;-82
2024/01/15 12:29:27;;;;;;;6.80;1.73;;;5.30;1.00;;;;;;5093128;28;20198;-82
2024/01/15 12:31:53;;;;;;;5.80;2.00;;;5.30;1.00;;;;;;5092656;28;20175;-84
2024/01/15 12:34:19;;;;;;;5.33;1.73;;;5.30;1.00;;;;;;5093279;28;20203;-85
2024/01/15 12:36:47;;;;;;;6.40;1.70;;;5.30;1.00;;;;;;5092507;28;20234;-84
2024/01/15 12:39:13;;;;;;;7.60;1.70;;;5.20;1.00;;;;;;5092756;28;20179;-83
2024/01/15 12:41:39;;;;;;;10.77;2.97;;;5.10;1.00;;;;;;5092290;28;20214;-84
2024/01/15 12:44:05;;;;;;;7.00;1.90;;;5.10;1.00;;;;;;5092060;28;20178;-84
2024/01/15 12:46:31;;;;;;;4.33;1.73;;;5.10;1.00;;;;;;5091949;28;20171;-84
2024/01/15 12:48:57;;;;;;;5.20;1.47;;;5.00;1.00;;;;;;5090918;28;20171;-83